Time;durP1;ratioP1;P1;durP2;ratioP2;P2;SDS_P1;SDS_P2;PMS_P1;PMS_P2;Temp;Humidity;BMP_temperature;BMP_pressure;BME280_temperature;BME280_humidity;BME280_pressure;Samples;Min_cycle;Max_cycle;Signal;HPM_P1;HPM_P2
2022/01/19 00:03:01;;;;;;;19.75;6.60;;;;;;;;;;6267128;28;20116;-64
2022/01/19 00:06:06;;;;;;;21.95;6.38;;;;;;;;;;6269408;28;20048;-64
2022/01/19 00:09:09;;;;;;;20.58;6.20;;;;;;;;;;6267269;28;20052;-63
2022/01/19 00:12:14;;;;;;;124.10;55.88;;;;;;;;;;6266200;28;20490;-64
2022/01/19 00:15:20;;;;;;;23.80;7.97;;;;;;;;;;6268005;28;20072;-65
2022/01/19 00:18:24;;;;;;;19.77;6.32;;;;;;;;;;6267301;28;20044;-64
2022/01/19 00:21:28;;;;;;;25.23;7.72;;;;;;;;;;6265850;28;20045;-64
2022/01/19 00:24:31;;;;;;;23.40;6.65;;;;;;;;;;6267261;28;20053;-63
2022/01/19 00:27:34;;;;;;;23.75;7.32;;;;;;;;;;6268574;28;20345;-64
2022/01/19 00:30:37;;;;;;;20.65;6.90;;;;;;;;;;6266877;28;20040;-64
2022/01/19 00:33:43;;;;;;;25.45;7.05;;;;;;;;;;6266766;28;20467;-64
2022/01/19 00:36:47;;;;;;;22.92;6.70;;;;;;;;;;6267140;28;20052;-64
2022/01/19 00:39:51;;;;;;;18.63;6.15;;;;;;;;;;6266594;28;20076;-63
2022/01/19 00:42:54;;;;;;;22.83;7.53;;;;;;;;;;6267853;28;20423;-64
2022/01/19 00:45:57;;;;;;;16.90;5.90;;;;;;;;;;6266465;28;20537;-64
2022/01/19 00:49:02;;;;;;;25.27;7.00;;;;;;;;;;6268293;28;20049;-64
2022/01/19 00:52:06;;;;;;;19.77;6.05;;;;;;;;;;6267820;28;20064;-64
2022/01/19 00:55:10;;;;;;;26.42;7.57;;;;;;;;;;6266115;28;20045;-64
2022/01/19 00:58:13;;;;;;;22.65;7.03;;;;;;;;;;6266752;28;20041;-64
2022/01/19 01:01:16;;;;;;;15.57;6.22;;;;;;;;;;6267409;28;20052;-63
2022/01/19 01:04:19;;;;;;;23.27;6.63;;;;;;;;;;6266208;28;20087;-64
2022/01/19 01:07:24;;;;;;;21.00;6.50;;;;;;;;;;6266961;28;20057;-63
2022/01/19 01:10:30;;;;;;;19.65;6.18;;;;;;;;;;6266383;28;20057;-64
2022/01/19 01:17:11;;;;;;;21.70;6.22;;;;;;;;;;6265217;28;20484;-63
2022/01/19 01:20:15;;;;;;;18.08;6.30;;;;;;;;;;6266181;28;20045;-63
2022/01/19 01:23:20;;;;;;;18.50;6.72;;;;;;;;;;6265784;28;20040;-63
2022/01/19 01:26:23;;;;;;;24.70;6.50;;;;;;;;;;6266859;28;20063;-64
2022/01/19 01:29:28;;;;;;;17.35;6.10;;;;;;;;;;6265876;28;20041;-63
2022/01/19 01:32:31;;;;;;;22.30;6.82;;;;;;;;;;6266110;28;20127;-64
2022/01/19 01:35:36;;;;;;;20.42;6.25;;;;;;;;;;6265514;28;20045;-64
2022/01/19 01:38:41;;;;;;;22.33;5.50;;;;;;;;;;6265409;28;20578;-65
2022/01/19 01:41:47;;;;;;;23.77;6.55;;;;;;;;;;6263451;28;20435;-63
2022/01/19 01:44:57;;;;;;;24.30;6.40;;;;;;;;;;6264800;28;20107;-63
2022/01/19 01:48:10;;;;;;;25.25;6.10;;;;;;;;;;6265508;28;20411;-64
2022/01/19 01:54:41;;;;;;;26.80;7.20;;;;;;;;;;6265826;28;20081;-64
2022/01/19 01:57:44;;;;;;;16.70;6.00;;;;;;;;;;6265396;28;20480;-63
2022/01/19 02:00:48;;;;;;;15.93;5.72;;;;;;;;;;6265222;28;20329;-63
2022/01/19 02:03:51;;;;;;;20.35;6.10;;;;;;;;;;6265378;28;20487;-63
2022/01/19 02:07:27;;;;;;;28.75;6.28;;;;;;;;;;6265515;28;20076;-63
2022/01/19 02:10:43;;;;;;;20.77;6.35;;;;;;;;;;6265186;28;20047;-63
2022/01/19 02:23:50;;;;;;;19.48;6.78;;;;;;;;;;6270012;28;20561;-63
2022/01/19 02:27:02;;;;;;;23.58;6.20;;;;;;;;;;6271160;28;20080;-63
2022/01/19 02:30:42;;;;;;;19.05;6.03;;;;;;;;;;6269665;28;20111;-63
2022/01/19 02:40:32;;;;;;;21.45;6.57;;;;;;;;;;6269294;28;20099;-63
2022/01/19 02:43:36;;;;;;;18.98;5.78;;;;;;;;;;6270720;28;20072;-63
2022/01/19 02:49:08;;;;;;;24.17;6.15;;;;;;;;;;6270970;28;20134;-63
2022/01/19 02:50:06;;;;;;;27.52;7.38;;;;;;;;;;6269677;28;20041;-63
2022/01/19 02:53:10;;;;;;;19.80;6.25;;;;;;;;;;6270494;28;20659;-63
2022/01/19 02:56:20;;;;;;;25.50;6.38;;;;;;;;;;6269068;28;20248;-62
2022/01/19 02:59:29;;;;;;;14.43;6.18;;;;;;;;;;6269503;28;20068;-63
2022/01/19 03:09:17;;;;;;;24.67;8.48;;;;;;;;;;6268751;28;20040;-63
2022/01/19 03:12:20;;;;;;;26.33;6.68;;;;;;;;;;6269390;28;20506;-64
2022/01/19 03:15:24;;;;;;;14.57;6.25;;;;;;;;;;6268809;28;20060;-63
2022/01/19 03:18:27;;;;;;;20.13;6.55;;;;;;;;;;6268611;28;20061;-64
2022/01/19 03:21:30;;;;;;;22.13;5.78;;;;;;;;;;6270105;28;20053;-64
2022/01/19 03:24:38;;;;;;;25.60;7.50;;;;;;;;;;6268589;28;20072;-63
2022/01/19 03:27:45;;;;;;;15.05;6.20;;;;;;;;;;6269573;28;20082;-63
2022/01/19 03:30:51;;;;;;;22.02;6.32;;;;;;;;;;6267877;28;20122;-64
2022/01/19 03:33:54;;;;;;;20.42;6.90;;;;;;;;;;6269997;28;20048;-63
2022/01/19 03:36:58;;;;;;;18.65;6.38;;;;;;;;;;6268210;28;20069;-63
2022/01/19 03:40:02;;;;;;;28.35;7.35;;;;;;;;;;6267928;28;20049;-63
2022/01/19 03:43:05;;;;;;;17.30;6.50;;;;;;;;;;6268668;28;20063;-63
2022/01/19 03:46:32;;;;;;;24.95;7.85;;;;;;;;;;6268139;28;20094;-63
2022/01/19 03:49:36;;;;;;;18.10;6.50;;;;;;;;;;6268080;28;20080;-63
2022/01/19 03:52:38;;;;;;;23.45;6.75;;;;;;;;;;6269760;28;20095;-63
2022/01/19 03:55:43;;;;;;;21.98;6.97;;;;;;;;;;6268178;28;20072;-63
2022/01/19 03:58:46;;;;;;;22.25;7.43;;;;;;;;;;6267659;28;20128;-62
2022/01/19 04:01:51;;;;;;;23.63;7.15;;;;;;;;;;6267713;28;20498;-63
2022/01/19 04:04:59;;;;;;;24.70;7.68;;;;;;;;;;6268375;28;20068;-62
2022/01/19 04:08:11;;;;;;;23.48;7.20;;;;;;;;;;6267981;28;20132;-62
2022/01/19 04:11:17;;;;;;;18.65;7.53;;;;;;;;;;6268647;28;20626;-63
2022/01/19 04:14:24;;;;;;;21.95;6.97;;;;;;;;;;6267450;28;20072;-65
2022/01/19 04:17:29;;;;;;;18.65;7.35;;;;;;;;;;6268894;28;20051;-63
2022/01/19 04:20:40;;;;;;;22.90;6.72;;;;;;;;;;6267619;28;20069;-62
2022/01/19 04:23:44;;;;;;;23.80;6.72;;;;;;;;;;6267137;28;20049;-64
2022/01/19 04:26:58;;;;;;;20.70;6.45;;;;;;;;;;6266750;28;20162;-65
2022/01/19 04:30:06;;;;;;;22.73;6.68;;;;;;;;;;6268620;28;20060;-64
2022/01/19 04:33:19;;;;;;;21.27;5.78;;;;;;;;;;6266910;28;20106;-63
2022/01/19 04:36:30;;;;;;;16.25;6.57;;;;;;;;;;6266826;28;20049;-63
2022/01/19 04:47:00;;;;;;;18.67;6.78;;;;;;;;;;6266537;28;20545;-65
2022/01/19 05:03:53;;;;;;;23.23;6.50;;;;;;;;;;6268227;28;20068;-63
2022/01/19 05:07:16;;;;;;;22.17;6.15;;;;;;;;;;6266299;28;20145;-63
2022/01/19 05:13:50;;;;;;;24.35;6.90;;;;;;;;;;6266502;28;20045;-64
2022/01/19 05:16:58;;;;;;;21.40;6.80;;;;;;;;;;6266443;28;20040;-64
2022/01/19 05:20:05;;;;;;;27.05;7.60;;;;;;;;;;6266002;28;20553;-65
2022/01/19 05:23:08;;;;;;;22.85;7.57;;;;;;;;;;6267038;28;20399;-64
2022/01/19 05:26:12;;;;;;;21.92;7.78;;;;;;;;;;6265913;28;20188;-64
2022/01/19 05:29:17;;;;;;;21.75;7.68;;;;;;;;;;6265827;28;20141;-64
2022/01/19 05:32:22;;;;;;;32.38;11.10;;;;;;;;;;6265598;28;20072;-64
2022/01/19 05:35:27;;;;;;;25.67;10.38;;;;;;;;;;6266011;28;20056;-64
2022/01/19 05:38:42;;;;;;;25.00;8.50;;;;;;;;;;6267038;28;20668;-63
2022/01/19 05:41:52;;;;;;;24.77;7.82;;;;;;;;;;6265619;28;20049;-64
2022/01/19 05:44:56;;;;;;;19.27;8.18;;;;;;;;;;6265358;28;20056;-63
2022/01/19 05:48:02;;;;;;;23.58;7.50;;;;;;;;;;6265530;28;20398;-63
2022/01/19 05:51:08;;;;;;;23.77;9.23;;;;;;;;;;6265711;28;20469;-63
2022/01/19 05:54:13;;;;;;;26.02;8.23;;;;;;;;;;6270400;28;20510;-64
2022/01/19 05:57:16;;;;;;;20.38;7.40;;;;;;;;;;6270506;28;20068;-63
2022/01/19 06:00:22;;;;;;;23.25;8.15;;;;;;;;;;6270635;28;20048;-63
2022/01/19 06:03:29;;;;;;;26.50;6.93;;;;;;;;;;6271921;28;20484;-64
2022/01/19 06:06:58;;;;;;;20.88;7.35;;;;;;;;;;6271264;28;20134;-62
2022/01/19 06:10:42;;;;;;;20.17;7.70;;;;;;;;;;6270379;28;20068;-63
2022/01/19 06:13:38;;;;;;;21.80;7.65;;;;;;;;;;6270765;28;20041;-64
2022/01/19 06:16:45;;;;;;;23.77;6.90;;;;;;;;;;6270083;28;20079;-65
2022/01/19 06:19:49;;;;;;;19.42;7.85;;;;;;;;;;6270048;28;20045;-64
2022/01/19 06:22:52;;;;;;;21.77;7.85;;;;;;;;;;6270544;28;20132;-64
2022/01/19 06:25:55;;;;;;;21.50;8.18;;;;;;;;;;6269465;28;20053;-64
2022/01/19 06:28:59;;;;;;;19.88;7.47;;;;;;;;;;6270140;28;20072;-64
2022/01/19 06:32:05;;;;;;;24.05;8.27;;;;;;;;;;6269418;28;20056;-64
2022/01/19 06:35:12;;;;;;;20.98;8.35;;;;;;;;;;6269826;28;20512;-64
2022/01/19 06:38:23;;;;;;;27.08;9.32;;;;;;;;;;6269461;28;20057;-63
2022/01/19 06:41:33;;;;;;;25.27;9.55;;;;;;;;;;6269319;28;20523;-63
2022/01/19 06:44:36;;;;;;;30.00;9.52;;;;;;;;;;6269411;28;20098;-64
2022/01/19 06:47:39;;;;;;;31.25;10.55;;;;;;;;;;6269341;28;20077;-63
2022/01/19 06:50:57;;;;;;;27.77;10.27;;;;;;;;;;6270393;28;20411;-62
2022/01/19 06:54:12;;;;;;;28.40;10.85;;;;;;;;;;6269283;28;20064;-63
2022/01/19 06:57:16;;;;;;;34.85;12.10;;;;;;;;;;6269437;28;20369;-66
2022/01/19 07:00:39;;;;;;;30.25;12.15;;;;;;;;;;6269881;28;20412;-63
2022/01/19 07:03:45;;;;;;;33.30;11.55;;;;;;;;;;6267875;28;20408;-64
2022/01/19 07:07:01;;;;;;;26.90;9.40;;;;;;;;;;6268675;28;21036;-63
2022/01/19 07:10:09;;;;;;;22.58;9.38;;;;;;;;;;6269027;28;20178;-63
2022/01/19 07:13:17;;;;;;;31.15;10.93;;;;;;;;;;6265788;28;20130;-63
2022/01/19 07:16:20;;;;;;;28.85;9.32;;;;;;;;;;6267048;28;20123;-63
2022/01/19 07:19:23;;;;;;;28.02;9.82;;;;;;;;;;6265815;28;20526;-63
2022/01/19 07:22:28;;;;;;;28.23;9.77;;;;;;;;;;6266156;28;20053;-63
2022/01/19 07:25:35;;;;;;;23.88;9.00;;;;;;;;;;6265711;28;20146;-63
2022/01/19 07:28:38;;;;;;;21.85;9.15;;;;;;;;;;6268236;28;20053;-63
2022/01/19 07:31:44;;;;;;;25.92;9.73;;;;;;;;;;6270315;28;20421;-63
2022/01/19 07:34:49;;;;;;;20.52;8.05;;;;;;;;;;6268084;28;20045;-63
2022/01/19 07:37:55;;;;;;;29.45;9.73;;;;;;;;;;6268045;28;20084;-64
2022/01/19 07:40:58;;;;;;;21.83;9.10;;;;;;;;;;6268485;28;20064;-63
2022/01/19 07:44:01;;;;;;;25.85;9.15;;;;;;;;;;6268062;28;20130;-64
2022/01/19 07:47:22;;;;;;;23.10;8.63;;;;;;;;;;6269290;28;20044;-63
2022/01/19 07:50:52;;;;;;;22.40;8.45;;;;;;;;;;6275813;28;20068;-64
2022/01/19 07:54:18;;;;;;;32.03;7.77;;;;;;;;;;6269103;28;20407;-64
2022/01/19 07:57:33;;;;;;;22.98;8.30;;;;;;;;;;6269434;28;20084;-64
2022/01/19 08:00:46;;;;;;;21.15;8.32;;;;;;;;;;6268976;28;20053;-63
2022/01/19 08:04:16;;;;;;;20.88;8.80;;;;;;;;;;6267758;28;20491;-63
2022/01/19 08:07:19;;;;;;;24.80;8.13;;;;;;;;;;6267422;28;20048;-63
2022/01/19 08:10:25;;;;;;;27.90;9.20;;;;;;;;;;6267861;28;20476;-63
2022/01/19 08:13:28;;;;;;;23.25;8.23;;;;;;;;;;6267415;28;20076;-63
2022/01/19 08:16:36;;;;;;;23.30;8.98;;;;;;;;;;6267111;28;20045;-63
2022/01/19 08:19:39;;;;;;;26.17;8.55;;;;;;;;;;6268891;28;20090;-64
2022/01/19 08:22:43;;;;;;;18.52;7.90;;;;;;;;;;6267212;28;20071;-64
2022/01/19 08:25:59;;;;;;;;;;;;;;;;;;6267479;28;20175;-64
2022/01/19 08:29:05;;;;;;;26.48;7.90;;;;;;;;;;6268133;28;19988;-64
2022/01/19 08:32:10;;;;;;;17.83;8.15;;;;;;;;;;6267291;28;20138;-64
2022/01/19 08:35:45;;;;;;;21.02;8.40;;;;;;;;;;6268212;28;20095;-64
2022/01/19 08:39:07;;;;;;;24.08;8.25;;;;;;;;;;6268155;28;20053;-64
2022/01/19 08:42:13;;;;;;;26.17;9.55;;;;;;;;;;6266895;28;20133;-64
2022/01/19 08:45:20;;;;;;;20.80;8.65;;;;;;;;;;6267005;28;20041;-64
2022/01/19 08:48:25;;;;;;;29.73;9.20;;;;;;;;;;6266583;28;20157;-64
2022/01/19 08:51:43;;;;;;;21.67;8.57;;;;;;;;;;6266404;28;20060;-64
2022/01/19 08:54:51;;;;;;;24.73;8.80;;;;;;;;;;6266396;28;20549;-64
2022/01/19 08:57:57;;;;;;;24.13;9.88;;;;;;;;;;6266598;28;20479;-63
2022/01/19 09:01:01;;;;;;;25.70;9.60;;;;;;;;;;6266345;28;20085;-64
2022/01/19 09:04:06;;;;;;;26.58;8.98;;;;;;;;;;6266149;28;20560;-64
2022/01/19 09:07:09;;;;;;;26.85;10.02;;;;;;;;;;6267598;28;20083;-64
2022/01/19 09:10:15;;;;;;;30.10;10.55;;;;;;;;;;6265997;28;20048;-64
2022/01/19 09:13:18;;;;;;;28.60;10.88;;;;;;;;;;6266025;28;20049;-64
2022/01/19 09:16:22;;;;;;;23.17;9.50;;;;;;;;;;6265885;28;20044;-65
2022/01/19 09:19:25;;;;;;;25.10;9.45;;;;;;;;;;6267252;28;20068;-64
2022/01/19 09:22:28;;;;;;;26.30;9.55;;;;;;;;;;6265934;28;20053;-65
2022/01/19 09:25:36;;;;;;;30.95;10.27;;;;;;;;;;6265835;28;20065;-64
2022/01/19 09:28:39;;;;;;;29.95;9.43;;;;;;;;;;6266730;28;20470;-64
2022/01/19 09:32:07;;;;;;;24.23;8.98;;;;;;;;;;6265836;28;20083;-65
2022/01/19 09:35:10;;;;;;;19.50;8.75;;;;;;;;;;6267016;28;20053;-65
2022/01/19 09:38:13;;;;;;;27.30;10.90;;;;;;;;;;6265543;28;20072;-65
2022/01/19 09:41:17;;;;;;;30.48;10.80;;;;;;;;;;6265835;28;20053;-65
2022/01/19 09:44:21;;;;;;;32.47;11.80;;;;;;;;;;6265879;28;20073;-65
2022/01/19 09:47:25;;;;;;;35.13;10.95;;;;;;;;;;6266690;28;20063;-65
2022/01/19 09:50:28;;;;;;;29.45;11.50;;;;;;;;;;6266824;28;20091;-65
2022/01/19 09:53:31;;;;;;;28.00;11.38;;;;;;;;;;6266656;28;20407;-65
2022/01/19 09:56:34;;;;;;;31.45;12.93;;;;;;;;;;6266752;28;20514;-65
2022/01/19 09:59:37;;;;;;;39.15;13.95;;;;;;;;;;6266684;28;20049;-63
2022/01/19 10:02:42;;;;;;;40.42;13.23;;;;;;;;;;6266764;28;20087;-63
2022/01/19 10:05:55;;;;;;;29.63;12.98;;;;;;;;;;6266549;28;20051;-64
2022/01/19 10:08:59;;;;;;;30.63;11.65;;;;;;;;;;6266392;28;20112;-63
2022/01/19 10:19:11;;;;;;;30.98;12.23;;;;;;;;;;6228731;28;20057;-63
2022/01/19 10:22:18;;;;;;;31.23;12.48;;;;;;;;;;6265219;28;20072;-64
2022/01/19 10:25:21;;;;;;;38.42;13.15;;;;;;;;;;6266274;28;20045;-64
2022/01/19 10:28:24;;;;;;;37.72;14.25;;;;;;;;;;6266190;28;20045;-64
2022/01/19 10:31:30;;;;;;;33.00;13.02;;;;;;;;;;6266239;28;20056;-64
2022/01/19 10:34:35;;;;;;;35.20;14.20;;;;;;;;;;6266368;28;20069;-65
2022/01/19 10:37:38;;;;;;;31.25;14.88;;;;;;;;;;6265624;28;20126;-63
2022/01/19 10:40:42;;;;;;;30.05;12.88;;;;;;;;;;6270883;28;20072;-64
2022/01/19 10:43:46;;;;;;;36.45;13.40;;;;;;;;;;6269512;28;20510;-64
2022/01/19 10:46:49;;;;;;;34.97;13.40;;;;;;;;;;6269549;28;20083;-64
2022/01/19 10:49:54;;;;;;;39.90;14.15;;;;;;;;;;6269288;28;20385;-63
2022/01/19 10:52:58;;;;;;;31.27;11.88;;;;;;;;;;6269237;28;20049;-65
2022/01/19 10:56:02;;;;;;;27.55;11.90;;;;;;;;;;6269117;28;20416;-62
2022/01/19 10:59:06;;;;;;;34.08;13.32;;;;;;;;;;6270613;28;20048;-62
2022/01/19 11:02:12;;;;;;;37.92;13.60;;;;;;;;;;6270259;28;20045;-63
2022/01/19 11:05:39;;;;;;;36.17;13.02;;;;;;;;;;6268888;28;20049;-63
2022/01/19 11:08:47;;;;;;;48.63;18.42;;;;;;;;;;6268830;28;20078;-64
2022/01/19 11:11:50;;;;;;;35.35;13.80;;;;;;;;;;6270232;28;20068;-64
2022/01/19 11:14:53;;;;;;;28.80;12.40;;;;;;;;;;6268887;28;20495;-63
2022/01/19 11:18:12;;;;;;;34.45;12.10;;;;;;;;;;6270336;28;20073;-63
2022/01/19 11:21:19;;;;;;;26.52;11.95;;;;;;;;;;6270197;28;20048;-64
2022/01/19 11:24:29;;;;;;;28.75;11.15;;;;;;;;;;6268554;28;20055;-65
2022/01/19 11:27:36;;;;;;;29.70;12.35;;;;;;;;;;6268255;28;20080;-63
2022/01/19 11:30:46;;;;;;;32.78;12.63;;;;;;;;;;6268281;28;20045;-65
2022/01/19 11:33:51;;;;;;;30.60;11.57;;;;;;;;;;6268450;28;20040;-64
2022/01/19 11:36:59;;;;;;;42.88;14.27;;;;;;;;;;6266768;28;20049;-64
2022/01/19 11:40:08;;;;;;;28.05;11.30;;;;;;;;;;6266963;28;20045;-64
2022/01/19 11:43:17;;;;;;;24.83;11.68;;;;;;;;;;6266271;28;20440;-64
2022/01/19 11:46:26;;;;;;;31.05;12.13;;;;;;;;;;6265201;28;20045;-64
2022/01/19 11:49:47;;;;;;;30.92;13.52;;;;;;;;;;6264485;28;20087;-63
2022/01/19 11:53:07;;;;;;;27.20;12.15;;;;;;;;;;6266470;28;20052;-63
2022/01/19 11:56:10;;;;;;;22.77;11.27;;;;;;;;;;6266581;28;20064;-63
2022/01/19 11:59:13;;;;;;;33.17;10.93;;;;;;;;;;6265082;28;20179;-65
2022/01/19 12:02:36;;;;;;;34.58;11.63;;;;;;;;;;6264636;28;20073;-64
2022/01/19 12:05:59;;;;;;;32.20;10.82;;;;;;;;;;6264689;28;20056;-64
2022/01/19 12:09:06;;;;;;;25.60;9.57;;;;;;;;;;6265279;28;20069;-64
2022/01/19 12:12:15;;;;;;;18.98;7.80;;;;;;;;;;6265380;28;20298;-64
2022/01/19 12:15:39;;;;;;;25.33;9.63;;;;;;;;;;6267527;28;20075;-64
2022/01/19 12:18:47;;;;;;;23.63;8.75;;;;;;;;;;6268540;28;20068;-64
2022/01/19 12:21:55;;;;;;;24.73;8.73;;;;;;;;;;6268796;28;20431;-64
2022/01/19 12:25:11;;;;;;;17.80;8.85;;;;;;;;;;6268720;28;20066;-64
2022/01/19 12:28:34;;;;;;;18.88;7.82;;;;;;;;;;6268345;28;20604;-64
2022/01/19 12:31:38;;;;;;;24.65;8.65;;;;;;;;;;6268107;28;20411;-64
2022/01/19 12:34:41;;;;;;;19.80;8.68;;;;;;;;;;6267059;28;20114;-64
2022/01/19 12:37:48;;;;;;;23.55;7.88;;;;;;;;;;6268109;28;20494;-63
2022/01/19 12:41:00;;;;;;;23.58;7.93;;;;;;;;;;6266995;28;20073;-64
2022/01/19 12:44:27;;;;;;;18.98;7.30;;;;;;;;;;6268044;28;20490;-65
2022/01/19 12:47:47;;;;;;;18.88;7.70;;;;;;;;;;6267786;28;20159;-64
2022/01/19 12:50:50;;;;;;;20.65;8.23;;;;;;;;;;6266548;28;20048;-64
2022/01/19 12:53:55;;;;;;;19.75;8.40;;;;;;;;;;6266606;28;20072;-64
2022/01/19 12:57:20;;;;;;;18.27;8.25;;;;;;;;;;6267829;28;20092;-64
2022/01/19 13:00:24;;;;;;;21.42;7.35;;;;;;;;;;6266514;28;20068;-64
2022/01/19 13:03:29;;;;;;;21.45;7.45;;;;;;;;;;6265747;28;20056;-64
2022/01/19 13:06:34;;;;;;;18.47;7.80;;;;;;;;;;6266317;28;20483;-64
2022/01/19 13:09:41;;;;;;;22.90;8.15;;;;;;;;;;6267697;28;20041;-65
2022/01/19 13:12:53;;;;;;;23.60;7.43;;;;;;;;;;6267464;28;20092;-64
2022/01/19 13:16:00;;;;;;;21.90;8.73;;;;;;;;;;6267505;28;20053;-64
2022/01/19 13:19:08;;;;;;;20.83;8.07;;;;;;;;;;6266003;28;20503;-64
2022/01/19 13:22:11;;;;;;;21.40;7.15;;;;;;;;;;6267846;28;20053;-64
2022/01/19 13:25:16;;;;;;;22.13;6.78;;;;;;;;;;6266969;28;20087;-65
2022/01/19 13:28:25;;;;;;;18.60;6.85;;;;;;;;;;6265770;28;20048;-65
2022/01/19 13:31:28;;;;;;;19.40;7.18;;;;;;;;;;6265648;28;20072;-65
2022/01/19 13:34:32;;;;;;;15.40;5.72;;;;;;;;;;6266395;28;20053;-65
2022/01/19 13:37:37;;;;;;;20.83;7.80;;;;;;;;;;6266920;28;20083;-65
2022/01/19 13:40:40;;;;;;;16.45;6.60;;;;;;;;;;6265483;28;20053;-65
2022/01/19 13:43:44;;;;;;;21.73;6.80;;;;;;;;;;6267290;28;20076;-65
2022/01/19 13:46:47;;;;;;;15.85;7.15;;;;;;;;;;6265580;28;20198;-64
2022/01/19 13:49:53;;;;;;;19.55;6.25;;;;;;;;;;6266527;28;20526;-66
2022/01/19 13:52:56;;;;;;;16.35;5.90;;;;;;;;;;6272601;28;20059;-66
2022/01/19 13:55:59;;;;;;;19.08;6.38;;;;;;;;;;6289901;28;20064;-66
2022/01/19 13:59:05;;;;;;;20.45;7.28;;;;;;;;;;6271215;28;20055;-65
2022/01/19 14:02:17;;;;;;;16.13;7.55;;;;;;;;;;6265435;28;20080;-64
2022/01/19 14:05:34;;;;;;;14.95;6.35;;;;;;;;;;6274983;28;20608;-64
2022/01/19 14:08:37;;;;;;;20.35;7.82;;;;;;;;;;6276678;28;20069;-63
2022/01/19 14:11:41;;;;;;;15.60;6.85;;;;;;;;;;6277788;28;20051;-63
2022/01/19 14:14:51;;;;;;;23.30;7.35;;;;;;;;;;6282813;28;20065;-63
2022/01/19 14:17:54;;;;;;;22.00;7.28;;;;;;;;;;6285188;28;20047;-64
2022/01/19 14:21:07;;;;;;;21.30;6.90;;;;;;;;;;6294585;28;20068;-64
2022/01/19 14:24:10;;;;;;;19.70;8.18;;;;;;;;;;6295816;28;20052;-64
2022/01/19 14:27:33;;;;;;;19.20;7.90;;;;;;;;;;6295874;28;20060;-65
2022/01/19 14:30:37;;;;;;;22.35;8.88;;;;;;;;;;6295814;28;20049;-64
2022/01/19 14:33:50;;;;;;;17.33;7.90;;;;;;;;;;6273416;28;20084;-64
2022/01/19 14:37:07;;;;;;;25.55;8.85;;;;;;;;;;6269301;28;20056;-64
2022/01/19 14:40:10;;;;;;;25.17;8.30;;;;;;;;;;6280378;28;20041;-64
2022/01/19 14:43:14;;;;;;;22.38;8.35;;;;;;;;;;6281828;28;20041;-64
2022/01/19 14:46:25;;;;;;;19.45;7.45;;;;;;;;;;6295252;28;20072;-64
2022/01/19 14:49:29;;;;;;;18.63;7.45;;;;;;;;;;6295275;28;20410;-64
2022/01/19 14:52:32;;;;;;;26.20;8.27;;;;;;;;;;6295341;28;20083;-64
2022/01/19 14:55:38;;;;;;;18.95;7.93;;;;;;;;;;6293948;28;20048;-65
2022/01/19 14:59:03;;;;;;;22.17;7.38;;;;;;;;;;6290555;28;20055;-66
2022/01/19 15:02:07;;;;;;;22.33;7.30;;;;;;;;;;6282994;28;20438;-65
2022/01/19 15:05:10;;;;;;;25.63;8.40;;;;;;;;;;6280866;28;20071;-66
2022/01/19 15:08:16;;;;;;;25.23;9.27;;;;;;;;;;6282894;28;20035;-65
2022/01/19 15:11:20;;;;;;;43.05;17.85;;;;;;;;;;6279832;28;20073;-66
2022/01/19 15:14:23;;;;;;;20.42;8.60;;;;;;;;;;6270287;28;20056;-64
2022/01/19 15:17:28;;;;;;;27.00;9.35;;;;;;;;;;6269727;28;20151;-64
2022/01/19 15:20:32;;;;;;;17.77;8.57;;;;;;;;;;6268634;28;20040;-64
2022/01/19 15:23:35;;;;;;;18.75;8.00;;;;;;;;;;6269961;28;20623;-64
2022/01/19 15:26:38;;;;;;;22.42;8.82;;;;;;;;;;6268559;28;20075;-63
2022/01/19 15:29:41;;;;;;;25.55;9.48;;;;;;;;;;6269820;28;20072;-65
2022/01/19 15:32:45;;;;;;;26.27;9.60;;;;;;;;;;6269524;28;20506;-64
2022/01/19 15:35:49;;;;;;;21.83;7.82;;;;;;;;;;6269035;28;20073;-64
2022/01/19 15:38:53;;;;;;;25.60;8.40;;;;;;;;;;6268056;28;20163;-63
2022/01/19 15:41:56;;;;;;;32.80;8.90;;;;;;;;;;6267218;28;20065;-64
2022/01/19 15:44:59;;;;;;;22.58;8.98;;;;;;;;;;6284781;28;20048;-64
2022/01/19 15:48:04;;;;;;;19.23;9.02;;;;;;;;;;6293514;28;20071;-63
2022/01/19 15:51:07;;;;;;;20.83;8.10;;;;;;;;;;6293886;28;20127;-64
2022/01/19 15:54:10;;;;;;;22.65;9.23;;;;;;;;;;6292005;28;20114;-64
2022/01/19 15:57:13;;;;;;;21.60;8.57;;;;;;;;;;6268927;28;20049;-65
2022/01/19 16:00:17;;;;;;;20.52;8.40;;;;;;;;;;6268878;28;20049;-65
2022/01/19 16:03:21;;;;;;;22.35;8.50;;;;;;;;;;6277491;28;20055;-64
2022/01/19 16:06:27;;;;;;;23.92;7.60;;;;;;;;;;6292618;28;20052;-65
2022/01/19 16:09:30;;;;;;;19.38;8.52;;;;;;;;;;6293438;28;20495;-64
2022/01/19 16:12:34;;;;;;;21.65;9.13;;;;;;;;;;6293366;28;20075;-65
2022/01/19 16:15:37;;;;;;;21.67;8.20;;;;;;;;;;6292194;28;20434;-65
2022/01/19 16:18:41;;;;;;;30.35;12.65;;;;;;;;;;6278804;28;20063;-64
2022/01/19 16:22:13;;;;;;;19.60;8.52;;;;;;;;;;6267448;28;20360;-64
2022/01/19 16:28:37;;;;;;;24.88;9.30;;;;;;;;;;6267738;28;20041;-65
2022/01/19 16:31:40;;;;;;;22.33;8.55;;;;;;;;;;6271732;28;20186;-65
2022/01/19 16:34:44;;;;;;;24.40;9.65;;;;;;;;;;6267557;28;20057;-65
2022/01/19 16:37:48;;;;;;;32.63;11.83;;;;;;;;;;6274573;28;20065;-65
2022/01/19 16:40:54;;;;;;;29.92;10.10;;;;;;;;;;6279169;28;20329;-65
2022/01/19 16:44:00;;;;;;;31.23;10.25;;;;;;;;;;6278937;28;20068;-65
2022/01/19 16:47:16;;;;;;;26.20;10.18;;;;;;;;;;6278407;28;20041;-65
2022/01/19 16:50:23;;;;;;;22.77;7.57;;;;;;;;;;6275821;28;20068;-65
2022/01/19 16:53:29;;;;;;;18.38;7.70;;;;;;;;;;6267506;28;20049;-63
2022/01/19 16:56:34;;;;;;;15.18;6.70;;;;;;;;;;6266467;28;20073;-64
2022/01/19 16:59:37;;;;;;;21.45;7.53;;;;;;;;;;6267710;28;20071;-64
2022/01/19 17:02:40;;;;;;;16.10;7.03;;;;;;;;;;6267326;28;20076;-64
2022/01/19 17:05:49;;;;;;;18.70;7.90;;;;;;;;;;6267431;28;20049;-64
2022/01/19 17:08:54;;;;;;;16.80;7.00;;;;;;;;;;6265917;28;20075;-63
2022/01/19 17:12:00;;;;;;;20.17;7.35;;;;;;;;;;6267042;28;20129;-64
2022/01/19 17:15:14;;;;;;;20.73;8.00;;;;;;;;;;6291621;28;20438;-65
2022/01/19 17:18:17;;;;;;;26.88;10.60;;;;;;;;;;6290938;28;20363;-65
2022/01/19 17:21:22;;;;;;;21.98;9.25;;;;;;;;;;6290789;28;20068;-65
2022/01/19 17:24:25;;;;;;;22.92;8.45;;;;;;;;;;6292465;28;20045;-64
2022/01/19 17:27:28;;;;;;;24.50;9.00;;;;;;;;;;6290592;28;20059;-64
2022/01/19 17:30:34;;;;;;;19.90;8.60;;;;;;;;;;6288482;28;20044;-65
2022/01/19 17:33:38;;;;;;;23.05;8.25;;;;;;;;;;6287791;28;20522;-63
2022/01/19 17:36:42;;;;;;;19.60;7.72;;;;;;;;;;6288976;28;20075;-62
2022/01/19 17:39:48;;;;;;;22.40;8.32;;;;;;;;;;6287414;28;20094;-63
2022/01/19 17:42:53;;;;;;;16.13;8.02;;;;;;;;;;6287555;28;20044;-62
2022/01/19 17:46:01;;;;;;;18.40;7.70;;;;;;;;;;6290824;28;20431;-62
2022/01/19 17:49:23;;;;;;;15.88;6.55;;;;;;;;;;6289825;28;20105;-62
2022/01/19 17:52:29;;;;;;;17.02;5.63;;;;;;;;;;6289839;28;20116;-63
2022/01/19 17:55:32;;;;;;;16.73;5.80;;;;;;;;;;6291813;28;20048;-63
2022/01/19 17:58:35;;;;;;;21.02;6.88;;;;;;;;;;6290573;28;20389;-63
2022/01/19 18:01:40;;;;;;;16.93;6.80;;;;;;;;;;6290326;28;20415;-63
2022/01/19 18:04:46;;;;;;;18.42;7.32;;;;;;;;;;6291617;28;20316;-62
2022/01/19 18:07:51;;;;;;;15.88;7.65;;;;;;;;;;6291542;28;20123;-63
2022/01/19 18:10:57;;;;;;;17.17;7.18;;;;;;;;;;6290124;28;20040;-63
2022/01/19 18:14:01;;;;;;;21.85;8.23;;;;;;;;;;6289951;28;20059;-63
2022/01/19 18:17:26;;;;;;;23.85;9.48;;;;;;;;;;6291933;28;20068;-63
2022/01/19 18:20:30;;;;;;;22.83;9.05;;;;;;;;;;6290149;28;20041;-63
2022/01/19 18:23:34;;;;;;;20.80;9.65;;;;;;;;;;6290063;28;20078;-63
2022/01/19 18:26:40;;;;;;;23.25;10.02;;;;;;;;;;6291191;28;20070;-62
2022/01/19 18:29:43;;;;;;;26.70;10.10;;;;;;;;;;6291311;28;20045;-63
2022/01/19 18:32:45;;;;;;;25.30;10.48;;;;;;;;;;6291232;28;20037;-63
2022/01/19 18:35:49;;;;;;;24.67;10.13;;;;;;;;;;6289824;28;20075;-63
2022/01/19 18:38:53;;;;;;;24.73;9.35;;;;;;;;;;6291448;28;20037;-62
2022/01/19 18:41:56;;;;;;;25.58;10.13;;;;;;;;;;6289696;28;20510;-63
2022/01/19 18:45:01;;;;;;;24.65;10.90;;;;;;;;;;6289683;28;20049;-63
2022/01/19 18:48:04;;;;;;;22.48;11.15;;;;;;;;;;6291069;28;20230;-62
2022/01/19 18:51:07;;;;;;;25.27;10.98;;;;;;;;;;6291378;28;20043;-62
2022/01/19 18:54:11;;;;;;;27.40;12.10;;;;;;;;;;6290867;28;20495;-62
2022/01/19 18:57:15;;;;;;;29.13;12.32;;;;;;;;;;6290786;28;20052;-62
2022/01/19 19:00:19;;;;;;;29.50;12.10;;;;;;;;;;6292328;28;20381;-63
2022/01/19 19:03:22;;;;;;;28.35;11.80;;;;;;;;;;6295092;28;20071;-63
2022/01/19 19:06:25;;;;;;;28.00;11.30;;;;;;;;;;6295188;28;20458;-63
2022/01/19 19:09:33;;;;;;;29.48;11.07;;;;;;;;;;6293817;28;20048;-63
2022/01/19 19:12:37;;;;;;;23.52;10.30;;;;;;;;;;6293607;28;20074;-63
2022/01/19 19:15:41;;;;;;;28.58;12.25;;;;;;;;;;6295425;28;20681;-62
2022/01/19 19:18:44;;;;;;;29.42;11.48;;;;;;;;;;6294976;28;20052;-63
2022/01/19 19:21:47;;;;;;;24.08;10.10;;;;;;;;;;6293474;28;20105;-63
2022/01/19 19:24:54;;;;;;;29.05;11.75;;;;;;;;;;6294933;28;20468;-63
2022/01/19 19:27:59;;;;;;;24.45;11.07;;;;;;;;;;6294498;28;20418;-63